This is the latest recevied weather packets stored in our database for station/object JQ1YUX-13. If no packets are shown the sender has not sent any weather packets the latest 10 day(s).
| Time | Temp. | Humidity | Pressure | Rain* | Wind** | Luminosity | Snow |
|---|---|---|---|---|---|---|---|
| 1777690684 | 27.22° C | 45% | 1003.9 hPa | 0 mm | - | - | - |
| 1777689785 | 26.67° C | 46% | 1003.8 hPa | 0 mm | - | - | - |
| 1777672686 | 17.78° C | 65% | 1001.2 hPa | 0 mm | - | - | - |
| 1777669086 | 17.78° C | 64% | 999.9 hPa | 0 mm | - | - | - |
| 1777667285 | 17.22° C | 66% | 999.2 hPa | 0 mm | - | - | - |
| 1777665486 | 14.44° C | 82% | 998.8 hPa | 0 mm | - | - | - |
| 1777660086 | 15° C | 80% | 996.4 hPa | 0 mm | - | - | - |
| 1777659184 | 15° C | 79% | 995.7 hPa | 0 mm | - | - | - |
| 1777655585 | 15.56° C | 77% | 994.7 hPa | 0 mm | - | - | - |
| 1777654686 | 15.56° C | 77% | 994.6 hPa | 0 mm | - | - | - |
| 1777652885 | 15.56° C | 79% | 994.6 hPa | 0 mm | - | - | - |
| 1777652326 | 15° C | 81% | 994.4 hPa | 0 mm | - | - | - |
| 1777651985 | 15° C | 82% | 994.5 hPa | 0 mm | - | - | - |
| 1777649286 | 15° C | 88% | 994.7 hPa | 0 mm | - | - | - |
| 1777648384 | 15° C | 88% | 994.8 hPa | 0 mm | - | - | - |
| 1777646586 | 15.56° C | 87% | 994.7 hPa | 0 mm | - | - | - |
| 1777645684 | 15.56° C | 86% | 994.5 hPa | 0 mm | - | - | - |
| 1777644784 | 16.11° C | 85% | 994.4 hPa | 0 mm | - | - | - |
| 1777643886 | 16.11° C | 84% | 994.6 hPa | 0 mm | - | - | - |
| 1777642084 | 16.67° C | 82% | 994.4 hPa | 0 mm | - | - | - |
| 1777641185 | 17.22° C | 79% | 994.3 hPa | 0 mm | - | - | - |
| 1777638484 | 17.78° C | 76% | 993.8 hPa | 0 mm | - | - | - |
| 1777637584 | 17.78° C | 77% | 993.4 hPa | 0 mm | - | - | - |
| 1777636685 | 17.78° C | 78% | 993.5 hPa | 0 mm | - | - | - |
| 1777634884 | 18.33° C | 76% | 992.9 hPa | 0 mm | - | - | - |
* Rain latest hour (hover to see other rain measurements)
** Current wind speed in m/s (hover to see current wind gust speed)